Terminal Aerodrome Forecast
Issued by NWS

Home | Current Version | Previous Version | Text Only | Print | Product List | Glossary On
Versions: 1 2 3 4 5 6 7 8 9 10 11 12 13 14 15 16 17 18 19 20 21 22 23 24 25 26 27 28
000
FTUS42 KTBW 101307 AAA
TAFRSW
TAF AMD
KRSW 101307Z 1013/1112 VRB03KT 6SM BR SCT015
      TEMPO 1013/1014 1/4SM FG BKN002
     FM101400 15011KT P6SM SCT040 BKN250
     FM101900 19009KT P6SM SCT040 BKN250
     FM110200 VRB03KT P6SM SCT020=

USA.gov is the U.S. government's official web portal to all federal, state and local government web resources and services.